Time;durP1;ratioP1;P1;durP2;ratioP2;P2;SDS_P1;SDS_P2;PMS_P1;PMS_P2;Temp;Humidity;BMP_temperature;BMP_pressure;BME280_temperature;BME280_humidity;BME280_pressure;Samples;Min_cycle;Max_cycle;Signal;HPM_P1;HPM_P2
2022/10/23 00:01:33;;;;;;;3.60;1.50;;;;;;;12.95;92.54;95655.66;4822888;29;20320;-86
2022/10/23 00:04:11;;;;;;;2.13;1.60;;;;;;;12.94;92.33;95648.81;4800238;29;20618;-86
2022/10/23 00:07:21;;;;;;;5.20;1.40;;;;;;;12.94;92.25;95649.63;4830112;29;20220;-86
2022/10/23 00:10:11;;;;;;;5.40;1.67;;;;;;;12.94;92.01;95641.81;4806668;29;20228;-86
2022/10/23 00:12:44;;;;;;;4.80;1.70;;;;;;;12.88;92.18;95637.22;4820123;29;20282;-86
2022/10/23 00:15:41;;;;;;;2.63;1.57;;;;;;;12.88;92.52;95641.63;4805713;29;20206;-86
2022/10/23 00:18:19;;;;;;;2.00;1.53;;;;;;;12.85;93.39;95647.16;4830376;29;20257;-86
2022/10/23 00:21:13;;;;;;;;;;;;;;;;;;;;;
2022/10/23 00:23:55;;;;;;;3.57;1.77;;;;;;;12.84;92.98;95654.16;4823048;29;20508;-85
2022/10/23 00:29:34;;;;;;;6.53;1.83;;;;;;;12.94;91.89;95643.59;4837389;29;20264;-84
2022/10/23 00:32:14;;;;;;;3.50;1.60;;;;;;;12.86;92.34;95638.38;4815000;29;20320;-86
2022/10/23 00:34:52;;;;;;;3.27;1.47;;;;;;;12.84;92.18;95633.31;4845200;29;20213;-86
2022/10/23 00:37:55;;;;;;;2.90;1.50;;;;;;;12.92;92.07;95632.53;4852192;29;20204;-86
2022/10/23 00:40:59;;;;;;;;;;;;;;;;;;;;;
2022/10/23 00:47:10;;;;;;;2.97;1.50;;;;;;;12.84;91.44;95635.94;4858328;29;20728;-86
2022/10/23 00:50:04;;;;;;;2.03;1.50;;;;;;;12.83;91.19;95628.28;4840860;29;20229;-85
2022/10/23 00:52:49;;;;;;;4.10;2.03;;;;;;;12.84;91.04;95628.09;4831366;29;20248;-85
2022/10/23 00:55:48;;;;;;;;;;;;;;;;;;;;;
2022/10/23 00:58:49;;;;;;;6.03;1.57;;;;;;;12.67;91.41;95618.63;4845008;29;20663;-86
2022/10/23 01:01:21;;;;;;;2.93;1.50;;;;;;;12.60;91.43;95617.59;4818391;29;20230;-84
2022/10/23 01:04:16;;;;;;;6.97;1.50;;;;;;;12.66;91.03;95619.59;4863877;29;20211;-85
2022/10/23 01:07:04;;;;;;;2.20;1.30;;;;;;;12.57;91.47;95617.94;4846524;29;20201;-86
2022/10/23 01:10:05;;;;;;;1.73;1.27;;;;;;;12.59;91.44;95623.78;4819618;29;20220;-86
2022/10/23 01:12:57;;;;;;;3.53;1.40;;;;;;;12.58;91.61;95619.56;4851103;29;20217;-86
2022/10/23 01:16:10;;;;;;;;;;;;;;;;;;;;;
2022/10/23 01:19:41;;;;;;;;;;;;;;;;;;;;;
2022/10/23 01:23:06;;;;;;;3.03;1.50;;;;;;;12.61;91.55;95604.41;4822077;29;20200;-86
2022/10/23 01:26:03;;;;;;;2.53;1.53;;;;;;;12.62;91.34;95594.81;4823584;29;20777;-85
2022/10/23 01:29:06;;;;;;;1.97;1.10;;;;;;;12.61;91.58;95594.00;4816599;29;20655;-86
2022/10/23 01:31:44;;;;;;;2.80;1.40;;;;;;;12.60;91.19;95592.38;4837202;29;20189;-86
2022/10/23 01:34:20;;;;;;;2.83;1.37;;;;;;;12.62;91.21;95593.03;4812736;29;20271;-85
2022/10/23 01:36:55;;;;;;;1.73;1.30;;;;;;;12.68;91.19;95592.41;4822332;29;20209;-85
2022/10/23 01:39:46;;;;;;;3.40;1.37;;;;;;;12.70;90.87;95593.03;4804839;29;20222;-85
2022/10/23 01:42:25;;;;;;;2.03;1.47;;;;;;;12.66;90.74;95590.94;4812113;29;20227;-86
2022/10/23 01:45:22;;;;;;;2.37;1.40;;;;;;;12.60;91.50;95589.75;4805348;29;20305;-85
2022/10/23 01:48:23;;;;;;;5.27;1.37;;;;;;;12.68;91.04;95595.00;4820837;29;20190;-85
2022/10/23 01:51:00;;;;;;;2.53;1.20;;;;;;;12.65;90.82;95590.13;4821719;29;20614;-85
2022/10/23 01:53:40;;;;;;;1.63;1.17;;;;;;;12.65;90.90;95590.13;4834302;29;20777;-85
2022/10/23 01:56:27;;;;;;;1.80;1.10;;;;;;;12.72;90.40;95585.91;4826358;29;20282;-86
2022/10/23 01:59:36;;;;;;;3.20;1.50;;;;;;;12.63;90.95;95573.00;4820897;29;20242;-85
2022/10/23 02:02:22;;;;;;;2.13;1.50;;;;;;;12.68;90.86;95584.56;4803609;29;20298;-86
2022/10/23 02:05:45;;;;;;;;;;;;;;;;;;;;;
2022/10/23 02:08:39;;;;;;;2.40;1.40;;;;;;;12.65;90.57;95581.50;4856578;29;20204;-85
2022/10/23 02:11:36;;;;;;;3.00;1.23;;;;;;;12.67;90.47;95577.75;4841254;29;20226;-85
2022/10/23 02:14:28;;;;;;;2.20;1.10;;;;;;;12.67;90.52;95563.91;4852660;29;20223;-86
2022/10/23 02:17:15;;;;;;;2.67;1.40;;;;;;;12.63;91.22;95557.38;4865869;29;20200;-86
2022/10/23 02:20:16;;;;;;;2.27;1.20;;;;;;;12.62;91.08;95558.34;4848933;29;20731;-85
2022/10/23 02:26:58;;;;;;;4.53;1.30;;;;;;;12.58;91.53;95552.66;4855120;29;20225;-85
2022/10/23 02:29:48;;;;;;;1.77;1.10;;;;;;;12.55;91.48;95539.13;4821375;29;20222;-86
2022/10/23 02:32:23;;;;;;;4.23;1.63;;;;;;;12.59;91.17;95543.03;4806011;29;20202;-86
2022/10/23 02:35:46;;;;;;;3.57;1.03;;;;;;;12.66;90.61;95537.03;4802861;29;20701;-86
2022/10/23 02:38:39;;;;;;;2.33;1.00;;;;;;;12.66;90.50;95528.41;4795542;29;20227;-85
2022/10/23 02:41:44;;;;;;;2.03;1.00;;;;;;;12.66;90.74;95531.00;4754699;29;20222;-86
2022/10/23 02:44:36;;;;;;;3.13;1.00;;;;;;;12.72;89.89;95523.38;4767275;30;20207;-86
2022/10/23 02:47:26;;;;;;;3.07;0.90;;;;;;;12.75;89.83;95530.84;4769089;30;20207;-86
2022/10/23 02:50:23;;;;;;;3.50;1.10;;;;;;;12.77;89.06;95523.69;4768987;30;20312;-86
2022/10/23 02:53:18;;;;;;;3.10;1.00;;;;;;;12.77;88.84;95521.09;4784338;29;20222;-86
2022/10/23 02:56:04;;;;;;;1.13;0.83;;;;;;;12.80;88.83;95526.94;4779412;29;20202;-85
2022/10/23 02:58:58;;;;;;;2.60;0.93;;;;;;;12.82;88.24;95525.81;4768644;30;20311;-86
2022/10/23 03:02:11;;;;;;;1.03;0.77;;;;;;;12.81;88.37;95524.19;4754565;30;20211;-86
2022/10/23 03:08:18;;;;;;;3.27;1.07;;;;;;;12.78;87.88;95519.28;4779699;30;20236;-86
2022/10/23 03:14:23;;;;;;;;;;;;;;;;;;;;;
2022/10/23 03:17:29;;;;;;;1.03;0.70;;;;;;;12.87;86.88;95520.09;4804678;29;20204;-85
2022/10/23 03:20:25;;;;;;;3.40;1.13;;;;;;;12.81;86.76;95508.56;4801681;29;20707;-85
2022/10/23 03:23:02;;;;;;;2.97;1.40;;;;;;;12.82;86.71;95506.78;4790582;29;20290;-86
2022/10/23 03:25:41;;;;;;;1.73;0.87;;;;;;;12.93;85.94;95509.84;4789849;29;20201;-86
2022/10/23 03:28:30;;;;;;;1.30;0.93;;;;;;;12.93;85.84;95504.66;4797580;29;20199;-85
2022/10/23 03:31:11;;;;;;;0.70;0.70;;;;;;;13.05;84.91;95505.94;4791689;29;20211;-86
2022/10/23 03:34:12;;;;;;;;;;;;;;;;;;;;;
2022/10/23 03:37:12;;;;;;;0.70;0.70;;;;;;;12.81;85.44;95510.31;4827123;29;20200;-87
2022/10/23 03:40:25;;;;;;;0.90;0.80;;;;;;;12.76;85.29;95506.44;4821075;29;20238;-86
2022/10/23 03:43:20;;;;;;;1.07;0.60;;;;;;;12.85;84.99;95502.03;4829170;29;20209;-86
2022/10/23 03:46:11;;;;;;;1.37;0.60;;;;;;;12.76;84.90;95493.41;4821939;29;20232;-86
2022/10/23 03:52:42;;;;;;;0.70;0.60;;;;;;;12.85;83.86;95507.25;4839944;29;20730;-86
2022/10/23 03:58:09;;;;;;;1.77;0.70;;;;;;;12.90;83.15;95502.38;4829347;29;20308;-85
2022/10/23 04:00:56;;;;;;;1.33;0.60;;;;;;;12.89;83.05;95500.72;4809631;29;20710;-86
2022/10/23 04:03:27;;;;;;;0.80;0.70;;;;;;;12.96;82.20;95495.69;4856186;29;20205;-86
2022/10/23 04:06:12;;;;;;;1.37;0.70;;;;;;;13.02;81.65;95495.84;4851891;29;20209;-87
2022/10/23 04:09:04;;;;;;;1.33;0.63;;;;;;;13.00;81.82;95499.59;4819703;29;20757;-86
2022/10/23 04:11:45;;;;;;;1.87;0.90;;;;;;;12.99;81.21;95493.56;4831773;29;20212;-85
2022/10/23 04:14:18;;;;;;;0.80;0.70;;;;;;;13.07;80.88;95500.56;4824320;29;20694;-86
2022/10/23 04:17:15;;;;;;;2.10;0.70;;;;;;;13.09;80.72;95498.63;4837748;29;20201;-87
2022/10/23 04:19:52;;;;;;;2.67;0.80;;;;;;;13.12;80.65;95505.28;4840595;29;20313;-86
2022/10/23 04:22:25;;;;;;;1.03;0.70;;;;;;;13.19;80.18;95494.06;4838157;29;20201;-86
2022/10/23 04:25:15;;;;;;;1.03;0.70;;;;;;;13.25;79.85;95495.19;4840825;29;20756;-86
2022/10/23 04:27:58;;;;;;;0.63;0.63;;;;;;;13.29;79.76;95499.94;4841574;29;20204;-85
2022/10/23 04:30:34;;;;;;;1.20;1.03;;;;;;;13.26;80.04;95487.22;4810917;29;20221;-86
2022/10/23 04:33:17;;;;;;;0.60;0.50;;;;;;;13.33;79.49;95496.00;4825212;29;20669;-86
2022/10/23 04:35:55;;;;;;;1.10;0.70;;;;;;;13.36;79.00;95496.66;4827583;29;20201;-85
2022/10/23 04:38:26;;;;;;;0.60;0.60;;;;;;;13.41;77.86;95496.97;4840742;29;20296;-86
2022/10/23 04:41:07;;;;;;;1.17;0.80;;;;;;;13.47;78.01;95498.91;4848487;29;20218;-86
2022/10/23 04:43:38;;;;;;;2.10;0.80;;;;;;;13.50;77.28;95504.59;4812246;29;20212;-85
2022/10/23 04:46:13;;;;;;;2.00;0.70;;;;;;;13.57;77.34;95508.19;4825923;29;20205;-86
2022/10/23 04:48:55;;;;;;;2.70;0.80;;;;;;;13.58;77.27;95498.56;4828842;29;20297;-85
2022/10/23 04:51:36;;;;;;;;;;;;;;;;;;;;;
2022/10/23 04:54:26;;;;;;;0.70;0.50;;;;;;;13.62;76.70;95492.03;4822753;29;20200;-85
2022/10/23 04:57:07;;;;;;;;;;;;;;;;;;;;;
2022/10/23 04:59:56;;;;;;;3.40;0.70;;;;;;;13.63;76.96;95496.28;4822922;29;20221;-86
2022/10/23 05:02:26;;;;;;;1.53;0.50;;;;;;;13.66;76.33;95482.88;4815636;29;20193;-85
2022/10/23 05:05:02;;;;;;;0.70;0.70;;;;;;;13.62;76.16;95483.41;4822522;29;20217;-85
2022/10/23 05:07:32;;;;;;;1.50;0.70;;;;;;;13.63;75.80;95483.22;4820085;29;20201;-85
2022/10/23 05:10:02;;;;;;;0.97;0.70;;;;;;;13.50;76.17;95480.31;4806076;29;20236;-85
2022/10/23 05:12:30;;;;;;;1.37;0.70;;;;;;;13.57;75.28;95481.28;4816891;29;20206;-85
2022/10/23 05:15:14;;;;;;;0.77;0.70;;;;;;;13.59;75.00;95468.88;4808091;29;20279;-85
2022/10/23 05:18:40;;;;;;;1.77;0.73;;;;;;;13.52;75.03;95467.94;4821847;29;20259;-85
2022/10/23 05:21:14;;;;;;;2.73;0.77;;;;;;;13.57;74.90;95466.44;4819630;29;20315;-85
2022/10/23 05:23:59;;;;;;;3.17;0.60;;;;;;;13.46;75.30;95473.81;4817113;29;20193;-85
2022/10/23 05:26:32;;;;;;;0.77;0.60;;;;;;;13.38;75.82;95466.00;4817193;29;20249;-85
2022/10/23 05:29:10;;;;;;;0.70;0.60;;;;;;;13.37;75.63;95473.03;4811998;29;20594;-85
2022/10/23 05:31:39;;;;;;;1.70;0.60;;;;;;;13.34;75.76;95470.75;4830962;29;20285;-86
2022/10/23 05:34:19;;;;;;;1.70;0.50;;;;;;;13.37;75.50;95464.38;4820821;29;20274;-85
2022/10/23 05:36:47;;;;;;;1.07;0.30;;;;;;;13.30;75.75;95474.66;4804826;29;20289;-85
2022/10/23 05:39:53;;;;;;;2.43;0.67;;;;;;;13.38;75.11;95460.78;4814511;29;20226;-85
2022/10/23 05:42:25;;;;;;;2.17;0.80;;;;;;;13.30;75.46;95461.63;4837527;29;20218;-85
2022/10/23 05:45:14;;;;;;;2.93;0.50;;;;;;;13.30;75.15;95459.81;4817267;29;20613;-85
2022/10/23 05:47:48;;;;;;;2.87;0.70;;;;;;;13.28;75.11;95459.19;4804961;29;20214;-86
2022/10/23 05:50:28;;;;;;;1.17;0.70;;;;;;;13.31;75.00;95461.44;4819331;29;20230;-86
2022/10/23 05:53:22;;;;;;;4.10;0.80;;;;;;;13.24;75.26;95451.84;4831428;29;20667;-85
2022/10/23 05:55:53;;;;;;;1.23;0.53;;;;;;;13.29;74.97;95452.97;4822527;29;20292;-85
2022/10/23 05:58:34;;;;;;;1.57;0.90;;;;;;;13.32;74.19;95451.81;4807540;29;20236;-85
2022/10/23 06:01:07;;;;;;;3.23;0.70;;;;;;;13.38;73.93;95440.72;4820221;29;20202;-85
2022/10/23 06:03:41;;;;;;;1.00;0.70;;;;;;;13.31;73.91;95450.19;4807470;29;20208;-85
2022/10/23 06:06:22;;;;;;;0.93;0.60;;;;;;;13.41;73.59;95440.38;4806124;29;20198;-85
2022/10/23 06:08:47;;;;;;;1.30;0.50;;;;;;;13.47;73.21;95441.53;4806952;29;20578;-85
2022/10/23 06:11:16;;;;;;;1.73;0.70;;;;;;;13.48;73.10;95441.34;4822554;29;20277;-86
2022/10/23 06:13:42;;;;;;;2.07;1.37;;;;;;;13.50;72.84;95443.78;4815952;29;20719;-85
2022/10/23 06:16:15;;;;;;;3.07;2.70;;;;;;;13.61;72.46;95443.44;4821575;29;20229;-83
2022/10/23 06:18:40;;;;;;;2.13;1.33;;;;;;;13.57;72.39;95440.34;4838918;29;20591;-85
2022/10/23 06:21:06;;;;;;;2.40;1.10;;;;;;;13.54;72.73;95439.88;4838399;29;20209;-83
2022/10/23 06:23:35;;;;;;;2.17;1.10;;;;;;;13.65;71.84;95439.50;4818867;29;20626;-84
2022/10/23 06:26:01;;;;;;;2.07;1.40;;;;;;;13.64;72.48;95440.50;4806817;29;20608;-84
2022/10/23 06:28:28;;;;;;;2.93;1.50;;;;;;;13.81;71.20;95447.28;4822910;29;20197;-84
2022/10/23 06:30:53;;;;;;;0.87;0.73;;;;;;;13.86;70.48;95444.94;4813925;29;20293;-84
2022/10/23 06:33:19;;;;;;;2.30;0.60;;;;;;;13.92;70.21;95443.47;4852898;29;20207;-84
2022/10/23 06:35:44;;;;;;;1.13;0.60;;;;;;;14.01;69.99;95444.25;4823484;29;20197;-83
2022/10/23 06:38:10;;;;;;;2.07;0.70;;;;;;;14.06;70.11;95434.09;4823042;29;20300;-83
2022/10/23 06:40:36;;;;;;;0.80;0.80;;;;;;;14.09;69.79;95424.13;4820138;29;20686;-84
2022/10/23 06:43:02;;;;;;;2.47;0.70;;;;;;;14.08;70.46;95432.13;4825676;29;20205;-84
2022/10/23 06:45:28;;;;;;;1.10;1.00;;;;;;;14.15;70.17;95438.31;4829242;29;20878;-83
2022/10/23 06:47:54;;;;;;;2.03;0.90;;;;;;;14.22;69.87;95439.22;4831374;29;20197;-84
2022/10/23 06:50:19;;;;;;;3.17;1.47;;;;;;;14.19;69.78;95439.56;4827628;29;20366;-84
2022/10/23 06:52:45;;;;;;;0.50;0.50;;;;;;;14.24;69.47;95436.47;4829319;29;20205;-84
2022/10/23 06:55:10;;;;;;;3.03;0.83;;;;;;;14.19;69.72;95439.56;4835806;29;20195;-82
2022/10/23 06:57:35;;;;;;;1.83;0.67;;;;;;;14.13;69.15;95430.66;4847087;29;20223;-83
2022/10/23 07:00:00;;;;;;;1.07;0.60;;;;;;;14.29;69.51;95440.16;4841718;29;20232;-83
2022/10/23 07:02:26;;;;;;;2.37;0.83;;;;;;;14.30;68.59;95435.75;4844074;29;20193;-83
2022/10/23 07:04:51;;;;;;;1.07;0.90;;;;;;;14.37;68.76;95439.28;4844275;29;20205;-83
2022/10/23 07:07:17;;;;;;;2.33;1.40;;;;;;;14.29;68.64;95439.34;4852601;29;20235;-83
2022/10/23 07:09:42;;;;;;;1.70;0.70;;;;;;;14.30;68.43;95443.59;4825960;29;20229;-83
2022/10/23 07:12:07;;;;;;;0.70;0.70;;;;;;;14.42;68.27;95444.81;4831736;29;20251;-83
2022/10/23 07:14:33;;;;;;;1.07;0.70;;;;;;;14.44;67.77;95441.03;4844470;29;20205;-82
2022/10/23 07:16:58;;;;;;;1.23;0.60;;;;;;;14.45;68.25;95450.53;4819672;29;20242;-83
2022/10/23 07:39:11;;;;;;;1.50;0.50;;;;;;;14.89;66.22;95460.34;4831601;29;20733;-84
2022/10/23 07:41:36;;;;;;;0.40;0.40;;;;;;;14.96;66.14;95458.66;4818493;29;20276;-84
2022/10/23 07:44:02;;;;;;;0.60;0.50;;;;;;;14.99;66.41;95457.47;4831036;29;20197;-83
2022/10/23 07:46:27;;;;;;;1.20;0.55;;;;;;;15.01;65.67;95461.53;4831514;29;20204;-84
2022/10/23 07:48:53;;;;;;;2.40;0.70;;;;;;;15.12;65.57;95459.50;4823597;29;20554;-84
2022/10/23 07:51:18;;;;;;;0.60;0.60;;;;;;;15.21;65.23;95454.03;4815673;29;20193;-85
2022/10/23 07:53:43;;;;;;;0.40;0.40;;;;;;;15.15;64.62;95454.72;4827529;29;20201;-83
2022/10/23 07:56:13;;;;;;;1.23;0.60;;;;;;;15.29;64.79;95447.91;4822292;29;20582;-84
2022/10/23 07:58:39;;;;;;;0.73;0.50;;;;;;;15.42;64.05;95437.59;4828908;29;20229;-83
2022/10/23 08:01:13;;;;;;;1.63;0.40;;;;;;;15.44;64.08;95447.88;4828748;29;20265;-83
2022/10/23 08:03:39;;;;;;;0.53;0.53;;;;;;;15.50;63.72;95449.78;4828183;29;20213;-83
2022/10/23 08:06:04;;;;;;;1.87;0.80;;;;;;;15.52;63.24;95447.81;4842272;29;20206;-84
2022/10/23 08:08:29;;;;;;;2.85;0.70;;;;;;;15.72;63.03;95442.84;4822348;29;20205;-83
2022/10/23 08:10:55;;;;;;;5.07;0.55;;;;;;;15.80;63.99;95445.38;4837222;29;20214;-83
2022/10/23 08:13:21;;;;;;;1.67;0.60;;;;;;;15.88;62.69;95447.09;4827473;29;20204;-83
2022/10/23 08:15:48;;;;;;;0.57;0.40;;;;;;;15.91;62.82;95441.50;4825358;29;20202;-83
2022/10/23 08:18:13;;;;;;;0.50;0.50;;;;;;;15.88;62.60;95439.25;4821909;29;20214;-80
2022/10/23 08:20:40;;;;;;;1.50;0.50;;;;;;;16.08;61.77;95440.31;4822700;29;20224;-81
2022/10/23 08:23:05;;;;;;;1.25;0.55;;;;;;;16.02;62.69;95425.31;4821899;29;20190;-80
2022/10/23 08:25:31;;;;;;;1.60;0.60;;;;;;;16.05;62.35;95438.84;4823732;29;20193;-83
2022/10/23 08:28:00;;;;;;;1.80;0.50;;;;;;;16.05;62.16;95436.22;4826042;29;20202;-85
2022/10/23 08:30:25;;;;;;;0.55;0.55;;;;;;;16.09;62.21;95436.69;4825389;29;20675;-85
2022/10/23 08:32:51;;;;;;;2.35;0.60;;;;;;;16.11;62.28;95435.50;4824527;29;20185;-86
2022/10/23 08:35:16;;;;;;;0.95;0.50;;;;;;;16.28;61.68;95436.09;4819573;29;20568;-85
2022/10/23 08:37:41;;;;;;;1.10;0.60;;;;;;;16.40;60.87;95441.66;4823807;29;20284;-85
2022/10/23 08:40:20;;;;;;;0.50;0.50;;;;;;;16.44;61.07;95442.91;4823810;29;20221;-85
2022/10/23 08:42:52;;;;;;;0.47;0.47;;;;;;;16.48;59.94;95438.09;4817737;29;20196;-86
2022/10/23 08:45:29;;;;;;;1.48;0.57;;;;;;;16.60;59.89;95439.22;4823727;29;20189;-84
2022/10/23 08:48:00;;;;;;;0.85;0.77;;;;;;;16.65;59.28;95432.41;4825745;29;20259;-85
2022/10/23 08:50:37;;;;;;;0.60;0.60;;;;;;;16.78;59.57;95434.38;4830084;29;20647;-82
2022/10/23 08:53:11;;;;;;;1.15;0.50;;;;;;;16.95;59.82;95440.16;4821752;29;20190;-82
2022/10/23 08:55:41;;;;;;;1.00;0.50;;;;;;;17.10;58.12;95434.84;4820806;29;20198;-80
2022/10/23 08:58:23;;;;;;;0.47;0.40;;;;;;;17.36;57.58;95436.84;4818621;29;20241;-85
2022/10/23 09:00:49;;;;;;;0.73;0.50;;;;;;;17.37;59.04;95427.97;4815372;29;20214;-85
2022/10/23 09:03:15;;;;;;;1.00;0.60;;;;;;;17.47;58.42;95423.97;4819833;29;20346;-85
2022/10/23 09:06:02;;;;;;;0.68;0.40;;;;;;;17.63;56.75;95436.00;4822462;29;20270;-81
2022/10/23 09:08:42;;;;;;;0.50;0.50;;;;;;;17.67;56.98;95429.38;4806906;29;20242;-83
2022/10/23 09:11:22;;;;;;;1.38;0.60;;;;;;;17.85;56.60;95428.06;4827733;29;20270;-81
2022/10/23 09:14:18;;;;;;;0.50;0.50;;;;;;;17.91;55.49;95422.00;4822674;29;20190;-82
2022/10/23 09:17:01;;;;;;;1.10;0.60;;;;;;;18.16;55.37;95407.34;4822135;29;20200;-81
2022/10/23 09:19:29;;;;;;;0.95;0.60;;;;;;;18.31;55.51;95420.34;4834253;29;20877;-82
2022/10/23 09:21:55;;;;;;;0.95;0.50;;;;;;;18.38;54.67;95418.53;4816666;29;20261;-82
2022/10/23 09:24:22;;;;;;;0.82;0.57;;;;;;;18.58;55.93;95413.31;4829337;29;20255;-82
2022/10/23 09:26:49;;;;;;;2.13;0.75;;;;;;;18.51;54.73;95410.66;4808417;29;20306;-85
2022/10/23 09:29:27;;;;;;;2.53;0.60;;;;;;;18.63;53.70;95400.34;4806308;29;20202;-85
2022/10/23 09:31:55;;;;;;;1.98;0.70;;;;;;;18.66;53.39;95413.16;4797882;29;20735;-85
2022/10/23 09:34:23;;;;;;;1.73;0.45;;;;;;;18.90;54.30;95399.38;4822186;29;20273;-85
2022/10/23 09:37:00;;;;;;;0.90;0.30;;;;;;;18.74;52.46;95393.75;4824541;29;20193;-85
2022/10/23 10:25:35;;;;;;;1.10;0.60;;;;;;;19.75;52.08;95410.03;4830964;29;20236;-82
2022/10/23 10:28:39;;;;;;;0.60;0.60;;;;;;;19.73;51.56;95391.00;4830441;29;20240;-86
2022/10/23 10:31:25;;;;;;;1.85;0.70;;;;;;;19.84;52.06;95376.34;4812404;29;20194;-85
2022/10/23 10:34:14;;;;;;;3.15;0.70;;;;;;;19.93;51.38;95360.09;4829490;29;20230;-87
2022/10/23 10:36:46;;;;;;;0.85;0.70;;;;;;;20.13;51.54;95361.81;4811588;29;20668;-85
2022/10/23 11:54:09;;;;;;;2.05;0.80;;;;;;;20.21;54.77;95332.56;4854791;24;21445;-82
2022/10/23 11:56:49;;;;;;;3.15;0.93;;;;;;;20.36;54.54;95320.72;4862863;29;20200;-85
2022/10/23 12:07:01;;;;;;;1.00;0.90;;;;;;;20.22;55.39;95305.19;4849725;23;20249;-85
2022/10/23 12:17:30;;;;;;;1.80;0.82;;;;;;;20.03;57.25;95302.47;3180492;23;21969;-85
2022/10/23 12:20:13;;;;;;;1.38;1.02;;;;;;;20.13;57.22;95294.09;4816486;29;20231;-83
2022/10/23 12:23:38;;;;;;;;;;;;;;;;;;;;;
2022/10/23 12:30:49;;;;;;;1.80;0.80;;;;;;;20.48;58.11;95296.31;4875839;29;20227;-83
2022/10/23 12:33:56;;;;;;;1.90;0.82;;;;;;;20.63;57.40;95296.78;4847420;29;20197;-83
2022/10/23 12:36:52;;;;;;;2.35;0.93;;;;;;;20.81;57.40;95296.03;4817385;29;20398;-83
2022/10/23 12:39:53;;;;;;;3.03;1.25;;;;;;;20.93;56.81;95278.44;4851802;29;20268;-83
2022/10/23 12:42:38;;;;;;;1.02;0.80;;;;;;;20.59;57.60;95285.88;4847749;29;20217;-84
2022/10/23 12:46:14;;;;;;;;;;;;;;;;;;;;;
2022/10/23 12:49:39;;;;;;;1.90;1.00;;;;;;;20.92;57.35;95266.28;4849885;29;20187;-83
2022/10/23 12:52:25;;;;;;;;;;;;;;;;;;;;;
2022/10/23 12:55:42;;;;;;;;;;;;;;;;;;;;;
2022/10/23 12:58:37;;;;;;;2.10;0.90;;;;;;;21.21;56.24;95249.72;4785709;29;20191;-84
2022/10/23 13:01:43;;;;;;;1.63;1.00;;;;;;;20.89;57.23;95241.13;4784486;30;20207;-83
2022/10/23 13:08:17;;;;;;;2.97;1.00;;;;;;;21.02;55.76;95234.88;4733547;30;20205;-85
2022/10/23 13:10:49;;;;;;;3.15;1.10;;;;;;;21.19;54.94;95221.91;4740229;30;20261;-85
2022/10/23 13:13:34;;;;;;;1.95;1.10;;;;;;;21.24;55.29;95213.34;4734619;30;20235;-84
2022/10/23 13:16:21;;;;;;;2.72;1.00;;;;;;;21.16;55.38;95214.44;4735606;30;20235;-84
2022/10/23 13:21:28;;;;;;;2.28;1.05;;;;;;;21.05;55.43;95210.72;4847109;29;20214;-81
2022/10/23 13:23:57;;;;;;;1.42;0.85;;;;;;;21.11;56.26;95211.66;4848614;29;20224;-81
2022/10/23 13:26:43;;;;;;;2.42;1.02;;;;;;;21.48;55.55;95217.75;4863207;29;20186;-81
2022/10/23 13:29:21;;;;;;;4.47;1.17;;;;;;;21.39;55.94;95216.44;4843763;29;20215;-81
2022/10/23 13:31:50;;;;;;;3.58;1.00;;;;;;;21.04;56.92;95219.66;4823041;29;20198;-82
2022/10/23 13:34:20;;;;;;;2.88;1.13;;;;;;;20.98;56.28;95215.25;4819676;29;20221;-83
2022/10/23 13:37:21;;;;;;;3.63;0.98;;;;;;;20.97;57.03;95212.84;4817131;29;20214;-82
2022/10/23 13:40:21;;;;;;;4.80;0.93;;;;;;;20.96;58.20;95214.69;4820455;29;20542;-83
2022/10/23 13:42:56;;;;;;;1.27;0.90;;;;;;;20.96;57.92;95217.31;4839036;29;20253;-83
2022/10/23 13:45:28;;;;;;;1.40;1.30;;;;;;;21.03;58.41;95220.69;4821836;29;20275;-82
2022/10/23 13:47:58;;;;;;;2.60;1.40;;;;;;;20.96;58.56;95219.94;4832926;29;20717;-82
2022/10/23 13:50:31;;;;;;;0.80;0.80;;;;;;;21.00;58.46;95210.56;4813484;29;20227;-83
2022/10/23 13:53:04;;;;;;;5.05;1.10;;;;;;;20.97;58.76;95197.81;4802675;29;20280;-83
2022/10/23 13:55:35;;;;;;;2.42;1.00;;;;;;;20.89;59.17;95198.91;4818640;29;20274;-82
2022/10/23 13:58:03;;;;;;;1.92;0.85;;;;;;;20.79;59.01;95195.97;4838008;29;20322;-83
2022/10/23 14:00:36;;;;;;;2.20;1.42;;;;;;;20.52;59.83;95198.06;4820612;29;20583;-84
2022/10/23 14:03:02;;;;;;;2.97;1.83;;;;;;;20.44;60.61;95197.56;4833228;29;20594;-83
2022/10/23 14:05:27;;;;;;;1.52;1.20;;;;;;;20.44;60.72;95194.91;4814141;29;20226;-83
2022/10/23 14:07:52;;;;;;;1.90;1.20;;;;;;;20.29;61.18;95197.84;4811812;29;20271;-83
2022/10/23 14:10:22;;;;;;;4.00;1.20;;;;;;;20.22;61.70;95191.81;4808239;29;20238;-83
2022/10/23 14:12:52;;;;;;;4.18;1.75;;;;;;;20.14;62.05;95192.06;4806667;29;20266;-83
2022/10/23 14:15:18;;;;;;;3.70;1.60;;;;;;;20.09;62.73;95190.09;4790382;29;20345;-84
2022/10/23 14:17:43;;;;;;;2.33;1.17;;;;;;;20.04;63.73;95190.75;4808164;29;20266;-84
2022/10/23 14:20:09;;;;;;;1.55;1.10;;;;;;;20.05;63.55;95186.28;4788135;29;20226;-83
2022/10/23 14:22:34;;;;;;;2.53;1.02;;;;;;;20.02;64.65;95186.72;4805655;29;20194;-84
2022/10/23 14:24:59;;;;;;;1.27;1.17;;;;;;;20.04;64.50;95196.00;4817816;29;20721;-85
2022/10/23 14:27:25;;;;;;;3.85;1.38;;;;;;;19.99;64.46;95190.59;4807428;29;20202;-85
2022/10/23 14:29:50;;;;;;;6.45;1.35;;;;;;;19.66;65.39;95197.91;4804710;29;20211;-86
2022/10/23 14:32:16;;;;;;;5.05;1.05;;;;;;;19.67;65.65;95197.69;4818725;29;20191;-85
2022/10/23 14:34:42;;;;;;;3.28;1.30;;;;;;;19.42;66.63;95200.22;4818670;29;20225;-85
2022/10/23 14:37:07;;;;;;;2.67;1.10;;;;;;;19.52;65.32;95191.88;4788490;29;20333;-85
2022/10/23 14:57:32;;;;;;;2.60;2.40;;;;;;;19.06;64.43;95171.84;4837293;29;20221;-83
2022/10/23 14:59:57;;;;;;;3.20;2.10;;;;;;;19.14;63.14;95166.34;4818252;29;20234;-83
2022/10/23 15:02:22;;;;;;;2.45;1.40;;;;;;;19.04;63.78;95166.00;4815289;29;20266;-84
2022/10/23 15:04:48;;;;;;;2.15;0.90;;;;;;;19.08;63.14;95164.56;4813929;29;20198;-83
2022/10/23 15:07:13;;;;;;;2.33;2.13;;;;;;;19.05;63.45;95164.16;4817094;29;20205;-84
2022/10/23 15:09:38;;;;;;;4.30;2.17;;;;;;;19.14;62.81;95158.47;4839461;29;20247;-85
2022/10/23 15:12:04;;;;;;;2.95;1.20;;;;;;;19.18;62.58;95159.66;4825727;29;20194;-84
2022/10/23 15:14:32;;;;;;;1.30;1.20;;;;;;;19.34;61.81;95166.25;4815108;29;20603;-85
2022/10/23 15:16:57;;;;;;;1.98;1.00;;;;;;;19.29;60.22;95154.75;4800856;29;20303;-85
2022/10/23 16:16:53;;;;;;;2.63;1.50;;;;;;;18.25;63.07;95111.78;4132926;23;20335;-84
2022/10/23 16:19:19;;;;;;;1.40;1.02;;;;;;;18.25;63.32;95105.72;4835784;29;20249;-83
2022/10/23 16:21:44;;;;;;;3.65;1.20;;;;;;;18.16;63.44;95107.78;4816259;29;20237;-83
2022/10/23 16:24:10;;;;;;;1.15;0.98;;;;;;;18.13;63.47;95104.75;4823636;29;20197;-82
2022/10/23 16:26:36;;;;;;;1.63;1.05;;;;;;;18.17;63.85;95106.75;4835821;29;20648;-84
2022/10/23 16:57:52;;;;;;;4.50;2.10;;;;;;;17.88;64.57;95142.16;4801751;29;20220;-88
2022/10/23 21:05:42;;;;;;;15.48;3.25;;;;;;;16.45;75.57;95255.84;4843793;29;20225;-84
2022/10/23 21:08:08;;;;;;;10.20;3.13;;;;;;;16.42;75.70;95262.25;4843008;29;20218;-84
2022/10/23 21:10:33;;;;;;;10.60;3.45;;;;;;;16.57;75.17;95259.53;4832160;29;20216;-84
2022/10/23 21:12:58;;;;;;;13.35;3.22;;;;;;;16.52;75.20;95259.31;4833482;29;20198;-84
2022/10/23 21:15:24;;;;;;;10.73;2.90;;;;;;;16.54;74.84;95275.66;4823648;29;20254;-84
2022/10/23 21:17:50;;;;;;;11.57;2.97;;;;;;;16.67;73.75;95264.44;4825002;29;20671;-85
2022/10/23 21:20:16;;;;;;;11.05;3.17;;;;;;;16.65;73.40;95262.00;4824225;29;20236;-85
2022/10/23 21:22:42;;;;;;;10.38;3.22;;;;;;;16.73;73.32;95263.72;4812989;29;20206;-85
2022/10/23 21:25:08;;;;;;;12.80;3.38;;;;;;;16.64;73.27;95270.88;4806963;29;20195;-84
2022/10/23 21:27:33;;;;;;;9.10;2.92;;;;;;;16.73;72.41;95273.38;4819167;29;20201;-85
2022/10/23 21:29:58;;;;;;;7.15;2.90;;;;;;;16.77;72.77;95278.03;4826047;29;20217;-86
2022/10/23 21:32:24;;;;;;;14.75;3.40;;;;;;;16.73;72.72;95271.56;4829963;29;20267;-86
2022/10/23 21:34:49;;;;;;;9.98;2.75;;;;;;;16.67;72.28;95270.50;4825648;29;20186;-86
2022/10/23 21:37:14;;;;;;;8.93;2.55;;;;;;;16.58;71.78;95274.25;4828548;29;20195;-86
2022/10/23 21:39:41;;;;;;;15.32;2.95;;;;;;;16.65;71.84;95272.50;4827916;29;20213;-85
2022/10/23 21:42:06;;;;;;;11.13;3.22;;;;;;;16.65;72.23;95271.69;4812319;29;20228;-86
2022/10/23 21:44:32;;;;;;;12.00;3.20;;;;;;;16.53;72.15;95271.41;4828292;29;20190;-86
2022/10/23 21:46:57;;;;;;;10.93;2.40;;;;;;;16.52;71.59;95271.59;4835641;29;20248;-86